Time;durP1;ratioP1;P1;durP2;ratioP2;P2;SDS_P1;SDS_P2;PMS_P1;PMS_P2;Temp;Humidity;BMP_temperature;BMP_pressure;BME280_temperature;BME280_humidity;BME280_pressure;Samples;Min_cycle;Max_cycle;Signal;HPM_P1;HPM_P2
2022/10/08 00:01:19;;;;;;;16.30;6.68;;;9.40;99.90;;;;;;5089908;28;20354;-82
2022/10/08 00:03:48;;;;;;;15.65;5.85;;;9.40;99.90;;;;;;5070381;28;20020;-82
2022/10/08 00:06:19;;;;;;;10.88;4.82;;;9.40;99.90;;;;;;5095989;28;20529;-81
2022/10/08 00:08:51;;;;;;;12.93;6.13;;;9.30;99.90;;;;;;5096704;28;20450;-81
2022/10/08 00:11:23;;;;;;;11.15;6.50;;;9.30;99.90;;;;;;5076928;28;20503;-82
2022/10/08 00:13:51;;;;;;;18.88;6.22;;;9.20;99.90;;;;;;5096632;28;20082;-82
2022/10/08 00:16:29;;;;;;;15.68;5.78;;;9.20;99.90;;;;;;5079037;28;20024;-82
2022/10/08 00:18:59;;;;;;;11.75;5.90;;;9.20;99.90;;;;;;5068566;28;20450;-81
2022/10/08 00:21:28;;;;;;;12.82;5.22;;;9.20;99.90;;;;;;5083920;28;20020;-82
2022/10/08 00:23:58;;;;;;;12.57;5.60;;;9.30;99.90;;;;;;5105653;28;20024;-81
2022/10/08 00:26:26;;;;;;;13.90;5.70;;;9.30;99.90;;;;;;5096042;28;20027;-82
2022/10/08 00:28:54;;;;;;;21.52;6.28;;;9.40;99.90;;;;;;5095662;28;20020;-81
2022/10/08 00:31:24;;;;;;;11.77;5.07;;;9.50;99.90;;;;;;5076918;28;20115;-84
2022/10/08 00:33:55;;;;;;;13.50;6.28;;;9.60;99.90;;;;;;5077331;28;20074;-83
2022/10/08 00:36:24;;;;;;;13.52;5.22;;;9.70;99.90;;;;;;5096226;28;20020;-82
2022/10/08 00:39:20;;;;;;;17.42;5.40;;;9.70;99.90;;;;;;5065045;28;20023;-81
2022/10/08 00:41:51;;;;;;;17.38;5.45;;;9.80;99.90;;;;;;5061112;28;20071;-80
2022/10/08 00:44:52;;;;;;;14.63;5.55;;;9.90;99.90;;;;;;5094856;28;20078;-81
2022/10/08 00:47:47;;;;;;;8.95;4.88;;;9.90;99.90;;;;;;5088740;28;20027;-82
2022/10/08 00:50:29;;;;;;;15.93;5.18;;;10.00;99.90;;;;;;5060146;28;20036;-81
2022/10/08 00:53:00;;;;;;;13.50;5.25;;;10.00;99.90;;;;;;5094368;28;20440;-80
2022/10/08 00:55:26;;;;;;;10.68;4.50;;;10.00;99.90;;;;;;5080252;28;20461;-80
2022/10/08 00:57:53;;;;;;;8.67;5.63;;;10.10;99.90;;;;;;5068215;28;20028;-81
2022/10/08 01:00:22;;;;;;;11.88;4.90;;;10.10;99.90;;;;;;5089987;28;20507;-81
2022/10/08 01:02:48;;;;;;;13.77;5.05;;;10.10;99.90;;;;;;5094785;28;20494;-82
2022/10/08 01:05:19;;;;;;;17.15;5.45;;;10.10;99.90;;;;;;5076619;28;20024;-82
2022/10/08 01:07:56;;;;;;;9.98;4.53;;;10.20;99.90;;;;;;5091074;28;20098;-82
2022/10/08 01:10:37;;;;;;;7.43;4.03;;;10.20;99.90;;;;;;5088651;28;20384;-82
2022/10/08 01:13:28;;;;;;;8.57;4.97;;;10.20;99.90;;;;;;5064702;28;20064;-81
2022/10/08 01:16:05;;;;;;;12.07;4.35;;;10.20;99.90;;;;;;5080551;28;20024;-83
2022/10/08 01:19:01;;;;;;;16.92;5.07;;;10.20;99.90;;;;;;5082196;28;20107;-81
2022/10/08 01:21:37;;;;;;;10.07;3.58;;;10.20;99.90;;;;;;5094800;28;20012;-84
2022/10/08 01:24:21;;;;;;;7.68;3.80;;;10.20;99.90;;;;;;5075599;28;20366;-82
2022/10/08 01:27:02;;;;;;;11.95;4.32;;;10.20;99.90;;;;;;5090486;28;20028;-80
2022/10/08 01:29:38;;;;;;;13.60;5.10;;;10.20;99.90;;;;;;5096060;28;20039;-81
2022/10/08 01:32:16;;;;;;;13.93;5.03;;;10.20;99.90;;;;;;5090815;28;20043;-82
2022/10/08 01:35:04;;;;;;;9.55;4.15;;;10.20;99.90;;;;;;5076900;28;20039;-80
2022/10/08 01:37:35;;;;;;;16.90;4.75;;;10.20;99.90;;;;;;5075950;28;20027;-80
2022/10/08 01:40:08;;;;;;;9.75;4.40;;;10.10;99.90;;;;;;5077716;28;20024;-80
2022/10/08 01:42:38;;;;;;;12.52;4.85;;;10.10;99.90;;;;;;5064988;28;20035;-80
2022/10/08 01:45:16;;;;;;;10.25;4.20;;;10.20;99.90;;;;;;5094391;28;20024;-82
2022/10/08 01:47:45;;;;;;;9.13;3.88;;;10.10;99.90;;;;;;5075442;28;20035;-82
2022/10/08 01:50:21;;;;;;;13.98;4.97;;;10.20;99.90;;;;;;5081121;28;20023;-81
2022/10/08 01:53:02;;;;;;;7.95;3.97;;;10.30;99.90;;;;;;5085225;28;20042;-82
2022/10/08 01:55:39;;;;;;;11.63;4.25;;;10.30;99.90;;;;;;5060318;28;20488;-81
2022/10/08 01:58:31;;;;;;;12.55;4.00;;;10.30;99.90;;;;;;5101617;28;20042;-83
2022/10/08 02:01:07;;;;;;;11.35;4.43;;;10.40;99.90;;;;;;5079915;28;20053;-82
2022/10/08 02:03:33;;;;;;;14.77;4.60;;;10.40;99.90;;;;;;5092647;28;20099;-81
2022/10/08 02:06:03;;;;;;;15.40;5.30;;;10.40;99.90;;;;;;5092462;28;20123;-80
2022/10/08 02:08:29;;;;;;;20.02;6.15;;;10.40;99.90;;;;;;5073208;28;20033;-80
2022/10/08 02:10:54;;;;;;;13.63;4.90;;;10.40;99.90;;;;;;5093160;28;20074;-80
2022/10/08 02:13:21;;;;;;;11.52;4.47;;;10.40;99.90;;;;;;5093417;28;20036;-81
2022/10/08 02:16:04;;;;;;;8.43;4.70;;;10.40;99.90;;;;;;5080352;28;20103;-81
2022/10/08 02:19:10;;;;;;;13.25;5.13;;;10.40;99.90;;;;;;5080026;28;20047;-80
2022/10/08 02:21:38;;;;;;;10.57;5.37;;;10.50;99.90;;;;;;5071425;28;20023;-82
2022/10/08 02:24:15;;;;;;;13.98;4.15;;;10.40;99.90;;;;;;5074674;28;20321;-81
2022/10/08 02:26:54;;;;;;;13.40;4.50;;;10.40;99.90;;;;;;5074499;28;20035;-81
2022/10/08 02:29:49;;;;;;;9.32;3.65;;;10.40;99.90;;;;;;5093456;28;20032;-80
2022/10/08 02:32:25;;;;;;;9.30;4.57;;;10.30;99.90;;;;;;5092850;28;20446;-81
2022/10/08 02:34:58;;;;;;;8.50;4.05;;;10.30;99.90;;;;;;5091466;28;20024;-82
2022/10/08 02:37:30;;;;;;;12.40;4.50;;;10.30;99.90;;;;;;5063079;28;20416;-82
2022/10/08 02:40:00;;;;;;;6.38;3.72;;;10.30;99.90;;;;;;5092302;28;20028;-80
2022/10/08 02:42:28;;;;;;;10.18;4.63;;;10.40;99.90;;;;;;5084858;28;20024;-81
2022/10/08 02:45:17;;;;;;;12.85;5.07;;;10.40;99.90;;;;;;5070061;28;20096;-80
2022/10/08 02:47:50;;;;;;;14.18;4.82;;;10.40;99.90;;;;;;5074503;28;20422;-81
2022/10/08 02:50:20;;;;;;;10.25;4.28;;;10.40;99.90;;;;;;5073560;28;20036;-81
2022/10/08 02:52:50;;;;;;;7.95;3.72;;;10.50;99.90;;;;;;5091966;28;20517;-81
2022/10/08 02:55:43;;;;;;;13.10;4.85;;;10.50;99.90;;;;;;5091899;28;20031;-82
2022/10/08 02:58:11;;;;;;;15.07;4.30;;;10.50;99.90;;;;;;5091680;28;20453;-81
2022/10/08 03:00:48;;;;;;;8.75;4.50;;;10.50;99.90;;;;;;5091906;28;20012;-81
2022/10/08 03:03:17;;;;;;;;;;;10.60;99.90;;;;;;5092450;28;20021;-80
2022/10/08 03:05:43;;;;;;;13.82;4.65;;;10.60;99.90;;;;;;5082148;28;19909;-79
2022/10/08 03:08:11;;;;;;;11.35;4.35;;;10.50;99.90;;;;;;5071642;28;20027;-79
2022/10/08 03:10:40;;;;;;;9.38;4.47;;;10.50;99.90;;;;;;5067820;28;20031;-82
2022/10/08 03:13:07;;;;;;;10.70;4.47;;;10.50;99.90;;;;;;5080569;28;20030;-83
2022/10/08 03:15:35;;;;;;;9.75;4.90;;;10.50;99.90;;;;;;5092259;28;20028;-82
2022/10/08 03:18:06;;;;;;;12.98;4.97;;;10.50;99.90;;;;;;5107947;28;20060;-78
2022/10/08 03:20:33;;;;;;;16.33;5.97;;;10.50;99.90;;;;;;5097788;28;20021;-81
2022/10/08 03:23:00;;;;;;;9.40;4.18;;;10.50;99.90;;;;;;5078627;28;20077;-82
2022/10/08 03:25:26;;;;;;;13.85;4.88;;;10.50;99.90;;;;;;5093481;28;20023;-81
2022/10/08 03:27:52;;;;;;;11.63;4.13;;;10.60;99.90;;;;;;5107305;28;20389;-79
2022/10/08 03:30:18;;;;;;;10.50;4.75;;;10.60;99.90;;;;;;5111815;28;20016;-80
2022/10/08 03:32:44;;;;;;;10.43;4.18;;;10.60;99.90;;;;;;5092027;28;20056;-79
2022/10/08 03:35:09;;;;;;;12.35;4.25;;;10.60;99.90;;;;;;5066816;28;20051;-80
2022/10/08 03:37:35;;;;;;;13.75;4.15;;;10.70;99.90;;;;;;5097624;28;20024;-82
2022/10/08 03:40:01;;;;;;;10.68;4.10;;;10.70;99.90;;;;;;5078400;28;20099;-81
2022/10/08 03:42:27;;;;;;;8.77;3.45;;;10.70;99.90;;;;;;5097413;28;20103;-81
2022/10/08 03:44:53;;;;;;;8.52;4.20;;;10.70;99.90;;;;;;5078190;28;20067;-81
2022/10/08 03:47:19;;;;;;;8.80;4.15;;;10.70;99.90;;;;;;5096483;28;20349;-82
2022/10/08 03:49:44;;;;;;;7.20;4.35;;;10.70;99.90;;;;;;5078979;28;20110;-82
2022/10/08 03:52:10;;;;;;;10.68;3.45;;;10.80;99.90;;;;;;5098700;28;20493;-81
2022/10/08 03:54:36;;;;;;;8.75;3.40;;;10.80;99.90;;;;;;5097182;28;20024;-82
2022/10/08 03:57:02;;;;;;;9.82;3.42;;;10.80;99.90;;;;;;5092909;28;20035;-80
2022/10/08 03:59:28;;;;;;;8.07;3.97;;;10.80;99.90;;;;;;5090335;28;20016;-80
2022/10/08 04:01:54;;;;;;;12.95;4.47;;;10.80;99.90;;;;;;5077407;28;20430;-81
2022/10/08 04:04:20;;;;;;;9.15;4.40;;;10.80;99.90;;;;;;5092549;28;20419;-80
2022/10/08 04:06:46;;;;;;;9.30;3.67;;;10.80;99.90;;;;;;5077729;28;20481;-80
2022/10/08 04:09:12;;;;;;;9.90;3.78;;;10.90;99.90;;;;;;5077249;28;20019;-80
2022/10/08 04:11:37;;;;;;;7.18;3.50;;;10.90;99.90;;;;;;5085563;28;20025;-82
2022/10/08 04:14:03;;;;;;;10.45;4.72;;;10.90;99.90;;;;;;5094352;28;20059;-81
2022/10/08 04:16:29;;;;;;;11.07;4.15;;;10.90;99.90;;;;;;5078333;28;20028;-80
2022/10/08 04:18:55;;;;;;;7.88;3.85;;;11.00;99.90;;;;;;5086868;28;20108;-82
2022/10/08 04:21:21;;;;;;;12.52;3.88;;;11.00;99.90;;;;;;5081182;28;20022;-81
2022/10/08 04:23:50;;;;;;;8.40;3.80;;;11.10;99.90;;;;;;5077897;28;20036;-81
2022/10/08 04:26:16;;;;;;;9.02;3.75;;;11.00;99.90;;;;;;5076866;28;20117;-83
2022/10/08 04:28:43;;;;;;;16.13;4.13;;;11.00;99.90;;;;;;5070739;28;20024;-84
2022/10/08 04:31:12;;;;;;;13.52;4.35;;;11.10;99.90;;;;;;5089317;28;20063;-82
2022/10/08 04:33:43;;;;;;;12.70;3.95;;;11.10;99.80;;;;;;5090271;28;20044;-82
2022/10/08 04:36:11;;;;;;;8.50;4.25;;;11.10;99.70;;;;;;5072074;28;20024;-83
2022/10/08 04:38:37;;;;;;;8.05;3.20;;;11.10;99.70;;;;;;5097530;28;20161;-82
2022/10/08 04:41:10;;;;;;;11.90;3.58;;;11.10;99.70;;;;;;5096318;28;20020;-82
2022/10/08 04:43:37;;;;;;;12.27;4.03;;;11.20;99.60;;;;;;5064328;28;20024;-82
2022/10/08 04:46:04;;;;;;;7.63;3.80;;;11.30;99.50;;;;;;5078007;28;20028;-83
2022/10/08 04:48:30;;;;;;;8.68;4.53;;;11.20;99.40;;;;;;5097160;28;20020;-81
2022/10/08 04:51:01;;;;;;;8.50;4.05;;;11.30;99.40;;;;;;5097924;28;20020;-79
2022/10/08 04:53:28;;;;;;;8.07;3.97;;;11.30;99.30;;;;;;5095681;28;20032;-81
2022/10/08 04:55:55;;;;;;;7.47;4.13;;;11.30;99.20;;;;;;5067133;28;20016;-80
2022/10/08 04:58:22;;;;;;;7.82;3.35;;;11.30;99.10;;;;;;5097507;28;20132;-80
2022/10/08 05:00:48;;;;;;;7.75;3.78;;;11.30;99.10;;;;;;5082338;28;20015;-80
2022/10/08 05:03:14;;;;;;;11.05;4.28;;;11.30;99.10;;;;;;5084631;28;20029;-80
2022/10/08 05:05:44;;;;;;;12.15;4.88;;;11.40;99.00;;;;;;5081435;28;20068;-82
2022/10/08 05:08:13;;;;;;;9.25;4.45;;;11.40;99.00;;;;;;5088342;28;20100;-80
2022/10/08 05:10:46;;;;;;;12.48;4.28;;;11.50;99.00;;;;;;5090772;28;20366;-81
2022/10/08 05:13:12;;;;;;;11.98;4.85;;;11.50;98.90;;;;;;5075252;28;20105;-82
2022/10/08 05:15:38;;;;;;;7.18;3.67;;;11.50;98.80;;;;;;5060259;28;20473;-82
2022/10/08 05:18:03;;;;;;;12.13;4.38;;;11.50;98.70;;;;;;5091405;28;20024;-82
2022/10/08 05:20:29;;;;;;;13.07;5.55;;;11.60;98.80;;;;;;5084561;28;20505;-81
2022/10/08 05:22:55;;;;;;;9.57;3.95;;;11.60;98.70;;;;;;5083249;28;20079;-81
2022/10/08 05:25:21;;;;;;;14.02;4.10;;;11.60;98.50;;;;;;5056744;28;20024;-82
2022/10/08 05:27:47;;;;;;;10.10;4.28;;;11.60;98.40;;;;;;5073898;28;20016;-82
2022/10/08 05:30:13;;;;;;;10.00;4.80;;;11.60;98.30;;;;;;5081237;28;20414;-82
2022/10/08 05:32:38;;;;;;;10.45;4.75;;;11.60;98.50;;;;;;5059817;28;20056;-79
2022/10/08 05:35:05;;;;;;;9.32;3.63;;;11.60;98.50;;;;;;5089678;28;20021;-81
2022/10/08 05:37:32;;;;;;;10.55;3.83;;;11.60;98.40;;;;;;5074868;28;20043;-80
2022/10/08 05:39:58;;;;;;;12.23;3.75;;;11.70;98.30;;;;;;5078936;28;20012;-83
2022/10/08 05:42:23;;;;;;;10.48;4.38;;;11.70;98.20;;;;;;5074072;28;20035;-81
2022/10/08 05:44:49;;;;;;;13.07;4.18;;;11.70;98.10;;;;;;5056061;28;20111;-81
2022/10/08 05:47:15;;;;;;;10.68;4.20;;;11.70;97.90;;;;;;5073631;28;20013;-81
2022/10/08 05:49:41;;;;;;;9.88;4.63;;;11.80;97.90;;;;;;5073693;28;20034;-82
2022/10/08 05:52:07;;;;;;;13.80;4.47;;;11.80;97.80;;;;;;5074535;28;20107;-80
2022/10/08 05:54:33;;;;;;;8.95;4.65;;;11.80;97.70;;;;;;5081001;28;20032;-81
2022/10/08 05:56:58;;;;;;;9.05;4.35;;;11.80;97.70;;;;;;5076320;28;20074;-80
2022/10/08 05:59:24;;;;;;;9.85;4.53;;;11.80;97.60;;;;;;5079399;28;20032;-83
2022/10/08 06:01:51;;;;;;;11.13;4.22;;;11.80;97.50;;;;;;5073014;28;20108;-83
2022/10/08 06:04:17;;;;;;;9.25;4.03;;;11.80;97.40;;;;;;5072951;28;20012;-83
2022/10/08 06:06:44;;;;;;;11.00;4.38;;;11.80;97.40;;;;;;5072945;28;20028;-83
2022/10/08 06:09:12;;;;;;;8.33;3.93;;;11.80;97.40;;;;;;5072797;28;20048;-83
2022/10/08 06:11:39;;;;;;;13.00;4.47;;;12.00;97.30;;;;;;5054853;28;20031;-82
2022/10/08 06:14:06;;;;;;;8.88;3.75;;;12.00;97.10;;;;;;5084761;28;20066;-81
2022/10/08 06:16:32;;;;;;;7.47;3.53;;;12.10;96.80;;;;;;5060027;28;20058;-81
2022/10/08 06:19:00;;;;;;;11.95;4.30;;;12.10;96.40;;;;;;5092566;28;20084;-83
2022/10/08 06:21:28;;;;;;;14.27;4.55;;;12.10;96.30;;;;;;5092270;28;20012;-80
2022/10/08 06:23:56;;;;;;;8.45;3.50;;;12.20;96.40;;;;;;5064702;28;20446;-83
2022/10/08 06:26:25;;;;;;;9.02;4.28;;;12.40;96.00;;;;;;5087235;28;20028;-81
2022/10/08 06:28:51;;;;;;;11.18;4.38;;;12.50;95.60;;;;;;5084079;28;20070;-81
2022/10/08 06:31:18;;;;;;;9.85;3.22;;;12.70;95.40;;;;;;5054941;28;20421;-83
2022/10/08 06:33:44;;;;;;;11.18;4.88;;;12.90;95.00;;;;;;5094093;28;20109;-82
2022/10/08 06:36:19;;;;;;;7.82;4.50;;;13.00;94.30;;;;;;5094066;28;20024;-83
2022/10/08 06:38:58;;;;;;;10.20;4.78;;;13.10;94.20;;;;;;5058396;28;20029;-82
2022/10/08 06:41:25;;;;;;;11.18;4.25;;;13.20;94.30;;;;;;5064516;28;20020;-83
2022/10/08 06:43:51;;;;;;;11.25;4.85;;;13.30;94.10;;;;;;5065986;28;20433;-83
2022/10/08 06:46:18;;;;;;;7.88;3.85;;;13.40;93.70;;;;;;5073875;28;20063;-82
2022/10/08 06:48:45;;;;;;;8.88;3.92;;;13.50;93.40;;;;;;5074205;28;20036;-81
2022/10/08 06:51:13;;;;;;;8.07;4.03;;;13.60;93.00;;;;;;5077591;28;20047;-80
2022/10/08 06:53:41;;;;;;;9.95;4.40;;;13.80;92.50;;;;;;5084321;28;20032;-81
2022/10/08 06:56:13;;;;;;;8.52;3.78;;;14.00;92.00;;;;;;5065193;28;20024;-82
2022/10/08 06:58:40;;;;;;;10.75;3.80;;;14.30;91.30;;;;;;5083199;28;20024;-83
2022/10/08 07:01:15;;;;;;;15.35;4.47;;;14.50;90.90;;;;;;5079667;28;20434;-80
2022/10/08 07:03:41;;;;;;;9.32;4.13;;;14.70;90.50;;;;;;5077948;28;20028;-80
2022/10/08 07:06:11;;;;;;;11.02;4.05;;;14.80;90.00;;;;;;5081369;28;20428;-83
2022/10/08 07:08:37;;;;;;;7.70;3.40;;;14.90;88.60;;;;;;5079117;28;20027;-82
2022/10/08 07:11:15;;;;;;;8.68;3.95;;;14.80;88.00;;;;;;5075576;28;20021;-84
2022/10/08 07:13:41;;;;;;;12.43;4.05;;;14.90;87.50;;;;;;5057734;28;20482;-82
2022/10/08 07:16:13;;;;;;;13.57;3.75;;;14.90;86.60;;;;;;5075894;28;20359;-82
2022/10/08 07:18:40;;;;;;;9.85;3.67;;;15.00;86.10;;;;;;5081142;28;20024;-81
2022/10/08 07:21:07;;;;;;;7.47;3.73;;;15.40;86.20;;;;;;5080764;28;20016;-82
2022/10/08 07:23:33;;;;;;;8.60;2.95;;;16.70;84.90;;;;;;5078684;28;20267;-82
2022/10/08 07:26:01;;;;;;;9.38;3.22;;;18.50;78.80;;;;;;5075619;28;20055;-83
2022/10/08 07:28:30;;;;;;;8.45;3.35;;;19.90;72.40;;;;;;5075054;28;20033;-81
2022/10/08 07:30:56;;;;;;;8.15;3.55;;;20.70;67.00;;;;;;5058608;28;20496;-80
2022/10/08 07:33:21;;;;;;;12.77;3.90;;;20.50;65.40;;;;;;5088379;28;20052;-83
2022/10/08 07:35:47;;;;;;;11.68;3.83;;;20.80;64.80;;;;;;5081255;28;20028;-82
2022/10/08 07:38:17;;;;;;;7.35;3.05;;;21.30;62.90;;;;;;5087481;28;20142;-82
2022/10/08 07:40:44;;;;;;;8.82;3.47;;;22.10;60.30;;;;;;5081742;28;20091;-82
2022/10/08 07:43:10;;;;;;;;;;;23.00;57.30;;;;;;5058356;28;20024;-83
2022/10/08 07:45:42;;;;;;;11.15;3.38;;;23.40;60.50;;;;;;5075327;28;19908;-82
2022/10/08 07:48:08;;;;;;;5.38;2.70;;;23.20;55.60;;;;;;5060433;28;20036;-84
2022/10/08 07:50:34;;;;;;;8.95;3.28;;;23.00;54.30;;;;;;5058071;28;20017;-82
2022/10/08 07:53:00;;;;;;;8.27;3.35;;;22.70;54.10;;;;;;5076181;28;20028;-81
2022/10/08 07:55:26;;;;;;;9.48;3.38;;;22.70;54.90;;;;;;5075481;28;20397;-85
2022/10/08 07:57:53;;;;;;;9.13;3.72;;;23.10;53.90;;;;;;5058222;28;20025;-83
2022/10/08 08:00:19;;;;;;;5.97;3.03;;;23.70;52.50;;;;;;5077061;28;20599;-83
2022/10/08 08:02:47;;;;;;;9.50;4.28;;;24.30;51.30;;;;;;5079485;28;20043;-82
2022/10/08 08:05:13;;;;;;;6.60;3.22;;;24.90;50.20;;;;;;5081052;28;20035;-82
2022/10/08 08:07:39;;;;;;;10.18;3.17;;;25.60;48.80;;;;;;5074337;28;20028;-84
2022/10/08 08:10:08;;;;;;;9.85;5.60;;;26.50;47.90;;;;;;5059388;28;20036;-86
2022/10/08 08:12:34;;;;;;;7.70;3.20;;;26.20;46.50;;;;;;5075009;28;20105;-82
2022/10/08 08:15:00;;;;;;;7.97;3.15;;;26.00;46.50;;;;;;5078448;28;20013;-83
2022/10/08 08:17:26;;;;;;;6.85;3.28;;;25.90;46.70;;;;;;5078984;28;20518;-83
2022/10/08 08:19:52;;;;;;;5.60;2.78;;;25.40;47.10;;;;;;5062297;28;20111;-84
2022/10/08 08:22:18;;;;;;;10.68;3.22;;;25.00;47.70;;;;;;5074906;28;20116;-82
2022/10/08 08:24:47;;;;;;;11.60;3.75;;;25.20;48.10;;;;;;5074566;28;20032;-83
2022/10/08 08:27:12;;;;;;;9.20;3.33;;;25.60;47.30;;;;;;5075153;28;20020;-84
2022/10/08 08:29:39;;;;;;;9.75;3.15;;;25.80;46.10;;;;;;5081639;28;20081;-86
2022/10/08 08:32:06;;;;;;;6.77;2.67;;;25.00;46.60;;;;;;5079631;28;20478;-85
2022/10/08 08:34:32;;;;;;;9.30;3.75;;;24.10;47.80;;;;;;5057402;28;20036;-87
2022/10/08 08:36:59;;;;;;;9.05;3.08;;;23.00;49.70;;;;;;5057733;28;20432;-89
2022/10/08 08:39:26;;;;;;;9.27;3.38;;;23.00;51.00;;;;;;5060801;28;20107;-80
2022/10/08 08:42:16;;;;;;;10.43;3.25;;;23.70;49.10;;;;;;5087693;28;20032;-84
2022/10/08 08:44:45;;;;;;;7.57;3.22;;;23.80;48.90;;;;;;5068853;28;20027;-86
2022/10/08 08:47:17;;;;;;;9.02;2.75;;;23.40;49.00;;;;;;5075181;28;20012;-83
2022/10/08 08:49:55;;;;;;;8.65;3.28;;;22.90;49.30;;;;;;5058994;28;20823;-85
2022/10/08 08:52:29;;;;;;;9.23;3.60;;;21.90;51.00;;;;;;5070438;28;20037;-84
2022/10/08 08:54:55;;;;;;;10.18;3.10;;;20.80;53.00;;;;;;5078167;28;20031;-86
2022/10/08 08:57:31;;;;;;;7.38;2.78;;;20.00;54.80;;;;;;5075521;28;20028;-82
2022/10/08 09:00:14;;;;;;;10.10;3.65;;;19.90;55.50;;;;;;5081489;28;20021;-83
2022/10/08 09:02:46;;;;;;;9.02;3.50;;;20.20;55.70;;;;;;5073751;28;20083;-82
2022/10/08 09:05:14;;;;;;;9.38;3.45;;;21.00;55.60;;;;;;5077132;28;20036;-82
2022/10/08 09:07:48;;;;;;;6.53;3.45;;;22.20;53.30;;;;;;5081889;28;20016;-83
2022/10/08 09:10:28;;;;;;;7.47;3.15;;;22.50;51.00;;;;;;5075861;28;20036;-84
2022/10/08 09:12:56;;;;;;;6.55;2.65;;;22.30;50.90;;;;;;5073273;28;20382;-83
2022/10/08 09:15:37;;;;;;;6.20;2.78;;;22.10;51.20;;;;;;5074583;28;20047;-84
2022/10/08 09:18:04;;;;;;;10.25;3.50;;;22.10;52.10;;;;;;5076112;28;20391;-83
2022/10/08 09:20:30;;;;;;;6.30;2.45;;;23.40;51.30;;;;;;5094957;28;20025;-84
2022/10/08 09:22:57;;;;;;;5.65;3.97;;;24.80;47.00;;;;;;5082447;28;20417;-87
2022/10/08 09:25:27;;;;;;;10.00;3.60;;;25.20;45.70;;;;;;5074831;28;20397;-84
2022/10/08 09:28:02;;;;;;;6.47;2.10;;;25.90;45.20;;;;;;5074650;28;20072;-86
2022/10/08 09:30:43;;;;;;;7.15;2.45;;;26.00;43.30;;;;;;5083836;28;20028;-85
2022/10/08 09:33:12;;;;;;;8.40;2.40;;;25.30;43.90;;;;;;5075559;28;20052;-84
2022/10/08 09:35:52;;;;;;;6.90;2.95;;;24.90;44.50;;;;;;5088200;28;20455;-84
2022/10/08 09:38:38;;;;;;;6.25;2.67;;;24.90;44.80;;;;;;5073658;28;20028;-83
2022/10/08 09:41:17;;;;;;;10.63;2.83;;;25.10;44.20;;;;;;5090092;28;20017;-85
2022/10/08 09:44:09;;;;;;;9.68;3.25;;;24.40;44.90;;;;;;5086523;28;20082;-85
2022/10/08 09:46:35;;;;;;;8.68;2.65;;;24.70;45.10;;;;;;5077582;28;20024;-85
2022/10/08 09:49:26;;;;;;;8.73;3.03;;;24.80;44.80;;;;;;5088214;28;20027;-85
2022/10/08 09:51:52;;;;;;;7.30;2.95;;;25.50;44.80;;;;;;5058591;28;20029;-81
2022/10/08 09:54:26;;;;;;;13.93;2.78;;;26.50;42.40;;;;;;5058470;28;20036;-83
2022/10/08 09:56:57;;;;;;;7.20;2.97;;;26.00;42.80;;;;;;5078454;28;20024;-83
2022/10/08 09:59:26;;;;;;;7.95;2.58;;;25.70;43.10;;;;;;5085421;28;20035;-83
2022/10/08 10:01:52;;;;;;;7.13;3.10;;;26.00;42.50;;;;;;5079381;28;20021;-82
2022/10/08 10:04:22;;;;;;;9.00;3.15;;;26.00;42.80;;;;;;5077423;28;20025;-82
2022/10/08 10:06:53;;;;;;;7.05;3.17;;;26.70;42.10;;;;;;5083596;28;20095;-84
2022/10/08 10:09:46;;;;;;;4.72;2.97;;;26.40;41.70;;;;;;5084315;28;20066;-82
2022/10/08 10:12:34;;;;;;;6.22;2.63;;;25.40;41.30;;;;;;5081638;28;20031;-81
2022/10/08 10:15:10;;;;;;;11.98;3.90;;;23.50;44.40;;;;;;5081357;28;20025;-82
2022/10/08 10:18:00;;;;;;;9.38;2.95;;;22.20;46.30;;;;;;5058733;28;20048;-82
2022/10/08 10:20:46;;;;;;;6.45;3.13;;;21.10;48.40;;;;;;5076741;28;20062;-83
2022/10/08 10:23:26;;;;;;;7.78;3.10;;;19.90;51.10;;;;;;5083102;28;20043;-84
2022/10/08 10:25:58;;;;;;;8.55;3.42;;;19.40;53.10;;;;;;5082317;28;20020;-82
2022/10/08 10:28:51;;;;;;;6.32;2.65;;;19.00;54.10;;;;;;5078864;28;20040;-82
2022/10/08 10:31:35;;;;;;;13.52;8.25;;;18.90;54.70;;;;;;5070767;28;20039;-81
2022/10/08 10:34:12;;;;;;;11.70;4.53;;;18.80;55.20;;;;;;5077701;28;20433;-84
2022/10/08 10:36:42;;;;;;;7.20;3.05;;;18.70;55.60;;;;;;5059970;28;20039;-86
2022/10/08 10:39:22;;;;;;;8.80;3.08;;;18.50;55.70;;;;;;5077491;28;20016;-82
2022/10/08 10:42:19;;;;;;;10.18;3.83;;;17.90;56.70;;;;;;5087175;28;20039;-84
2022/10/08 10:44:51;;;;;;;7.07;3.30;;;17.50;57.80;;;;;;5048829;28;20037;-83
2022/10/08 10:47:21;;;;;;;9.35;3.67;;;17.20;58.40;;;;;;5066434;28;20027;-81
2022/10/08 10:49:49;;;;;;;5.38;3.22;;;17.20;59.00;;;;;;5066785;28;20093;-81
2022/10/08 10:52:32;;;;;;;8.63;4.30;;;17.10;59.50;;;;;;5090704;28;20095;-80
2022/10/08 10:55:01;;;;;;;9.77;3.63;;;16.90;59.60;;;;;;5094670;28;20070;-84
2022/10/08 10:57:27;;;;;;;9.35;4.72;;;16.90;60.10;;;;;;5071985;28;20393;-84
2022/10/08 11:00:01;;;;;;;8.05;3.40;;;16.90;60.40;;;;;;5073217;28;20039;-83
2022/10/08 11:02:54;;;;;;;8.65;5.00;;;16.90;60.20;;;;;;5078362;28;20024;-82
2022/10/08 11:05:24;;;;;;;9.48;4.05;;;16.60;61.30;;;;;;5052952;28;20065;-84
2022/10/08 11:08:02;;;;;;;8.82;3.22;;;16.50;62.00;;;;;;5081104;28;20021;-82
2022/10/08 11:11:09;;;;;;;7.45;3.47;;;16.60;62.50;;;;;;5080269;28;20053;-84
2022/10/08 11:13:56;;;;;;;8.00;3.47;;;16.60;62.60;;;;;;5006023;28;20030;-83
2022/10/08 11:16:29;;;;;;;11.30;3.60;;;16.60;63.20;;;;;;5010603;28;20030;-84
2022/10/08 11:18:58;;;;;;;8.02;3.90;;;16.60;63.00;;;;;;5012179;28;20068;-84
2022/10/08 11:21:39;;;;;;;10.57;4.05;;;16.60;64.00;;;;;;5009857;28;20439;-84
2022/10/08 11:24:30;;;;;;;11.95;3.58;;;16.70;64.20;;;;;;5015643;28;20583;-85
2022/10/08 11:27:19;;;;;;;7.15;3.28;;;16.60;64.10;;;;;;5013199;28;20411;-84
2022/10/08 11:29:55;;;;;;;8.20;3.50;;;16.50;63.60;;;;;;5010053;28;20117;-84
2022/10/08 11:32:21;;;;;;;7.20;3.40;;;16.40;64.10;;;;;;5005112;28;20042;-84
2022/10/08 11:35:15;;;;;;;9.98;4.05;;;16.40;64.40;;;;;;4996348;28;20072;-85
2022/10/08 11:38:07;;;;;;;8.10;3.63;;;16.40;64.70;;;;;;5015257;28;20036;-85
2022/10/08 11:40:47;;;;;;;10.88;3.45;;;16.40;64.50;;;;;;5015881;28;20034;-84
2022/10/08 11:43:22;;;;;;;9.00;3.40;;;16.40;63.70;;;;;;5023356;28;20105;-83
2022/10/08 11:46:30;;;;;;;10.13;3.35;;;16.30;63.10;;;;;;5081165;28;20036;-82
2022/10/08 11:48:56;;;;;;;9.25;2.90;;;16.20;63.50;;;;;;5090240;28;20089;-82
2022/10/08 11:51:21;;;;;;;7.35;3.25;;;16.10;63.90;;;;;;5077047;28;20378;-81
2022/10/08 11:53:59;;;;;;;11.25;3.65;;;16.00;64.50;;;;;;5076304;28;20051;-81
2022/10/08 11:56:25;;;;;;;9.30;4.55;;;16.00;63.90;;;;;;5075633;28;20385;-81
2022/10/08 11:58:58;;;;;;;6.97;3.15;;;16.00;64.40;;;;;;5076354;28;20116;-79
2022/10/08 12:01:24;;;;;;;9.98;3.80;;;16.00;64.60;;;;;;5056774;28;20119;-80
2022/10/08 12:04:22;;;;;;;9.73;4.28;;;16.00;64.80;;;;;;5076158;28;20112;-81
2022/10/08 12:07:04;;;;;;;7.32;3.28;;;16.00;64.90;;;;;;5056728;28;20044;-80
2022/10/08 12:10:05;;;;;;;9.63;4.05;;;16.00;64.90;;;;;;5077662;28;20016;-86
2022/10/08 12:12:50;;;;;;;9.02;3.50;;;16.00;65.20;;;;;;5086502;28;20035;-86
2022/10/08 12:15:22;;;;;;;9.13;4.00;;;15.90;65.50;;;;;;5077306;28;20044;-84
2022/10/08 12:17:53;;;;;;;9.85;4.50;;;15.90;65.80;;;;;;5094995;28;20020;-85
2022/10/08 12:20:21;;;;;;;11.27;4.68;;;15.80;66.10;;;;;;5112895;28;20016;-84
2022/10/08 12:23:34;;;;;;;8.20;3.67;;;15.80;66.70;;;;;;5063918;28;20045;-83
2022/10/08 12:26:02;;;;;;;13.00;4.75;;;15.90;66.20;;;;;;5078439;28;20089;-84
2022/10/08 12:28:31;;;;;;;10.15;3.05;;;15.90;66.00;;;;;;5076509;28;20466;-84
2022/10/08 12:31:14;;;;;;;13.98;5.82;;;15.80;65.80;;;;;;5067887;28;20107;-86
2022/10/08 12:33:40;;;;;;;6.05;3.30;;;15.80;66.10;;;;;;5093435;28;20048;-82
2022/10/08 12:36:15;;;;;;;11.27;4.93;;;15.70;66.20;;;;;;5084061;28;20070;-83
2022/10/08 12:39:04;;;;;;;9.82;4.40;;;15.70;66.80;;;;;;5095428;28;20091;-84
2022/10/08 12:41:42;;;;;;;10.77;4.57;;;15.70;66.80;;;;;;5095795;28;20028;-86
2022/10/08 12:44:07;;;;;;;;;;;15.70;66.60;;;;;;5079506;28;20028;-89
2022/10/08 12:46:46;;;;;;;10.30;3.95;;;15.60;66.50;;;;;;5078464;28;20703;-87
2022/10/08 12:49:24;;;;;;;8.82;4.90;;;15.60;66.10;;;;;;5092107;28;20071;-86
2022/10/08 12:52:06;;;;;;;10.63;3.55;;;15.60;66.40;;;;;;5078121;28;20070;-87
2022/10/08 12:54:32;;;;;;;9.10;4.43;;;15.60;67.00;;;;;;5065618;28;20024;-88
2022/10/08 12:57:00;;;;;;;9.60;5.18;;;15.60;67.50;;;;;;5101313;28;20012;-89
2022/10/08 12:59:31;;;;;;;8.80;5.20;;;15.60;67.50;;;;;;5097960;28;20017;-86
2022/10/08 13:01:57;;;;;;;12.07;4.32;;;15.60;67.70;;;;;;5062719;28;20020;-83
2022/10/08 13:04:31;;;;;;;12.37;5.20;;;15.60;67.60;;;;;;5081097;28;20025;-87
2022/10/08 13:06:57;;;;;;;10.00;4.20;;;15.60;68.00;;;;;;5086634;28;20043;-83
2022/10/08 13:09:30;;;;;;;15.23;4.80;;;15.50;68.20;;;;;;5077670;28;20454;-85